createdAt,value
2022-10-25T00:00:42.000Z,7.13
2022-10-25T00:03:07.000Z,7.05
2022-10-25T00:05:33.000Z,6.5
2022-10-25T00:08:00.000Z,6.83
2022-10-25T00:10:25.000Z,6.65
2022-10-25T00:12:51.000Z,6.2
2022-10-25T00:15:17.000Z,6.53
2022-10-25T00:17:42.000Z,6.6
2022-10-25T00:20:11.000Z,6.77
2022-10-25T00:22:35.000Z,6.35
2022-10-25T00:25:01.000Z,5.9
2022-10-25T00:27:28.000Z,6.28
2022-10-25T00:29:54.000Z,6.73
2022-10-25T00:32:20.000Z,6.8
2022-10-25T00:34:46.000Z,7.4
2022-10-25T00:37:12.000Z,7.67
2022-10-25T00:39:37.000Z,8.5
2022-10-25T00:42:04.000Z,7.4
2022-10-25T00:46:55.000Z,6.1
2022-10-25T00:49:21.000Z,5.8
2022-10-25T00:51:47.000Z,5.5
2022-10-25T00:54:13.000Z,5.22
2022-10-25T00:56:40.000Z,5.42
2022-10-25T00:59:06.000Z,5.87
2022-10-25T01:01:31.000Z,5.4
2022-10-25T01:03:56.000Z,4.97
2022-10-25T01:06:23.000Z,5.15
2022-10-25T01:13:41.000Z,5.37
2022-10-25T01:16:06.000Z,4.78
2022-10-25T01:18:32.000Z,4.62
2022-10-25T01:20:58.000Z,4.83
2022-10-25T01:23:25.000Z,4.67
2022-10-25T01:25:50.000Z,4.87
2022-10-25T01:28:16.000Z,5
2022-10-25T01:30:43.000Z,5.08
2022-10-25T01:33:08.000Z,4.97
2022-10-25T01:35:34.000Z,5.1
2022-10-25T01:38:00.000Z,5.12
2022-10-25T01:40:26.000Z,5.5
2022-10-25T01:42:53.000Z,5.2
2022-10-25T01:45:18.000Z,5.5
2022-10-25T01:47:44.000Z,5.22
2022-10-25T01:50:10.000Z,5.9
2022-10-25T01:52:35.000Z,6.57
2022-10-25T01:55:01.000Z,6.6
2022-10-25T01:57:27.000Z,7
2022-10-25T01:59:52.000Z,7.4
2022-10-25T02:02:18.000Z,7.4
2022-10-25T02:04:43.000Z,7.5
2022-10-25T02:07:10.000Z,7.7
2022-10-25T02:09:35.000Z,6.6
2022-10-25T02:12:02.000Z,6.58
2022-10-25T02:14:27.000Z,6.1
2022-10-25T02:16:52.000Z,6.27
2022-10-25T02:19:19.000Z,6.58
2022-10-25T02:21:44.000Z,5.58
2022-10-25T02:24:10.000Z,5.3
2022-10-25T02:26:36.000Z,5.17
2022-10-25T02:29:02.000Z,4.83
2022-10-25T02:31:27.000Z,4.97
2022-10-25T02:33:54.000Z,4.87
2022-10-25T02:36:20.000Z,6.77
2022-10-25T02:38:46.000Z,5.7
2022-10-25T02:41:12.000Z,5.42
2022-10-25T02:43:38.000Z,5.33
2022-10-25T02:46:04.000Z,4.9
2022-10-25T02:48:30.000Z,4.55
2022-10-25T02:50:55.000Z,5.43
2022-10-25T02:53:21.000Z,5.4
2022-10-25T02:55:47.000Z,6.05
2022-10-25T02:58:12.000Z,5.75
2022-10-25T03:00:39.000Z,5.73
2022-10-25T03:03:04.000Z,5.53
2022-10-25T03:05:30.000Z,4.9
2022-10-25T03:07:57.000Z,4.4
2022-10-25T03:10:23.000Z,4.22
2022-10-25T03:12:49.000Z,4.4
2022-10-25T03:15:14.000Z,4.3
2022-10-25T03:17:40.000Z,6.6
2022-10-25T03:20:07.000Z,6.9
2022-10-25T03:22:32.000Z,4.6
2022-10-25T03:24:57.000Z,4.3
2022-10-25T03:27:23.000Z,3.6
2022-10-25T03:29:50.000Z,3.58
2022-10-25T03:32:15.000Z,4.2
2022-10-25T03:34:41.000Z,5.08
2022-10-25T03:39:33.000Z,7.95
2022-10-25T03:41:59.000Z,7.45
2022-10-25T03:44:25.000Z,9.58
2022-10-25T03:46:51.000Z,7.87
2022-10-25T03:49:18.000Z,6.03
2022-10-25T03:51:43.000Z,6.87
2022-10-25T03:54:10.000Z,8.1
2022-10-25T03:56:34.000Z,8.37
2022-10-25T03:59:01.000Z,13.03
2022-10-25T04:01:27.000Z,12.3
2022-10-25T04:03:53.000Z,8.1
2022-10-25T04:06:19.000Z,6.6
2022-10-25T04:08:48.000Z,7.53
2022-10-25T04:11:14.000Z,9
2022-10-25T04:13:40.000Z,9.53
2022-10-25T04:16:06.000Z,9.1
2022-10-25T04:18:31.000Z,8.17
2022-10-25T04:20:57.000Z,6.43
2022-10-25T04:23:22.000Z,6.4
2022-10-25T04:25:48.000Z,5.8
2022-10-25T04:28:15.000Z,7.17
2022-10-25T04:30:40.000Z,6.58
2022-10-25T04:33:09.000Z,7.97
2022-10-25T04:35:35.000Z,7.6
2022-10-25T04:38:01.000Z,6.62
2022-10-25T04:40:29.000Z,5.78
2022-10-25T04:42:54.000Z,4.7
2022-10-25T04:45:22.000Z,5.1
2022-10-25T04:47:46.000Z,6.1
2022-10-25T04:50:13.000Z,6.05
2022-10-25T04:52:39.000Z,5.42
2022-10-25T04:55:06.000Z,6.9
2022-10-25T04:57:30.000Z,5.7
2022-10-25T04:59:57.000Z,4.53
2022-10-25T05:02:23.000Z,4.78
2022-10-25T05:04:48.000Z,4.6
2022-10-25T05:07:14.000Z,6.72
2022-10-25T05:09:40.000Z,5.6
2022-10-25T05:12:06.000Z,7.25
2022-10-25T05:14:32.000Z,9.43
2022-10-25T05:16:58.000Z,11.93
2022-10-25T05:19:23.000Z,9.68
2022-10-25T05:21:51.000Z,10.07
2022-10-25T05:24:17.000Z,7.85
2022-10-25T05:26:43.000Z,8.43
2022-10-25T05:29:09.000Z,10.3
2022-10-25T05:31:34.000Z,10.88
2022-10-25T05:34:00.000Z,9.07
2022-10-25T05:36:25.000Z,8.33
2022-10-25T05:38:52.000Z,7.7
2022-10-25T05:43:47.000Z,9.63
2022-10-25T05:46:14.000Z,9.2
2022-10-25T05:48:39.000Z,8.55
2022-10-25T05:51:05.000Z,6.9
2022-10-25T05:53:33.000Z,6.4
2022-10-25T05:55:58.000Z,6.95
2022-10-25T05:58:23.000Z,7.9
2022-10-25T06:00:49.000Z,8.08
2022-10-25T06:03:15.000Z,7.6
2022-10-25T06:05:42.000Z,5.15
2022-10-25T06:08:08.000Z,4.62
2022-10-25T06:10:34.000Z,4.15
2022-10-25T06:13:00.000Z,3.45
2022-10-25T06:15:26.000Z,3.7
2022-10-25T06:17:53.000Z,4.37
2022-10-25T06:20:21.000Z,6.3
2022-10-25T06:22:47.000Z,6.3
2022-10-25T06:25:24.000Z,8
2022-10-25T06:27:40.000Z,5.12
2022-10-25T06:30:08.000Z,5.3
2022-10-25T06:35:05.000Z,9.25
2022-10-25T06:37:31.000Z,10.85
2022-10-25T06:39:57.000Z,8.03
2022-10-25T06:42:27.000Z,6.47
2022-10-25T06:44:53.000Z,5.22
2022-10-25T06:47:21.000Z,5.53
2022-10-25T06:49:48.000Z,4.78
2022-10-25T06:52:13.000Z,10.25
2022-10-25T06:54:41.000Z,10.13
2022-10-25T06:57:07.000Z,19.75
2022-10-25T06:59:32.000Z,19.65
2022-10-25T07:02:00.000Z,24.35
2022-10-25T07:04:27.000Z,27.62
2022-10-25T07:06:52.000Z,20.75
2022-10-25T07:09:18.000Z,10.95
2022-10-25T07:11:47.000Z,7.83
2022-10-25T07:14:14.000Z,8.1
2022-10-25T07:16:39.000Z,7.2
2022-10-25T07:19:07.000Z,6.42
2022-10-25T07:21:38.000Z,6.63
2022-10-25T07:24:07.000Z,6.58
2022-10-25T07:26:33.000Z,6.12
2022-10-25T07:29:01.000Z,5.9
2022-10-25T07:31:27.000Z,6.4
2022-10-25T07:33:53.000Z,6.1
2022-10-25T07:38:44.000Z,5.35
2022-10-25T07:41:12.000Z,5.6
2022-10-25T07:43:38.000Z,5.75
2022-10-25T07:46:04.000Z,5.75
2022-10-25T07:48:28.000Z,5
2022-10-25T07:50:56.000Z,5.33
2022-10-25T07:53:22.000Z,5.35
2022-10-25T07:55:49.000Z,5.25
2022-10-25T07:58:15.000Z,5.3
2022-10-25T08:00:48.000Z,5.43
2022-10-25T08:03:08.000Z,5.33
2022-10-25T08:05:33.000Z,5.9
2022-10-25T08:08:00.000Z,6.22
2022-10-25T08:10:26.000Z,6.1
2022-10-25T08:12:51.000Z,5.4
2022-10-25T08:15:18.000Z,6.5
2022-10-25T08:17:43.000Z,5.47
2022-10-25T08:22:42.000Z,6.5
2022-10-25T08:25:08.000Z,5.92
2022-10-25T08:27:35.000Z,5.8
2022-10-25T08:30:01.000Z,5.5
2022-10-25T08:32:26.000Z,5.23
2022-10-25T08:34:52.000Z,6.05
2022-10-25T08:37:18.000Z,5.4
2022-10-25T08:39:45.000Z,4.15
2022-10-25T08:42:11.000Z,4.67
2022-10-25T08:44:38.000Z,4.9
2022-10-25T08:47:06.000Z,4.7
2022-10-25T08:49:33.000Z,4.7
2022-10-25T08:51:58.000Z,4.1
2022-10-25T08:54:27.000Z,5.2
2022-10-25T08:56:54.000Z,4.6
2022-10-25T08:59:19.000Z,5.3
2022-10-25T09:01:48.000Z,5.25
2022-10-25T09:04:16.000Z,5.78
2022-10-25T09:06:45.000Z,6.25
2022-10-25T09:09:12.000Z,5.67
2022-10-25T09:11:38.000Z,5.72
2022-10-25T09:14:05.000Z,5.75
2022-10-25T09:16:32.000Z,5.3
2022-10-25T09:18:57.000Z,5.3
2022-10-25T09:21:24.000Z,5.45
2022-10-25T09:23:55.000Z,5.42
2022-10-25T09:26:23.000Z,5.9
2022-10-25T09:28:48.000Z,5.1
2022-10-25T09:31:14.000Z,4.9
2022-10-25T09:33:41.000Z,4.53
2022-10-25T09:36:11.000Z,4.2
2022-10-25T09:38:40.000Z,3.9
2022-10-25T09:41:06.000Z,5.17
2022-10-25T09:43:36.000Z,4.63
2022-10-25T09:45:58.000Z,4.6
2022-10-25T09:48:24.000Z,4.62
2022-10-25T09:50:50.000Z,5.27
2022-10-25T09:53:17.000Z,4.95
2022-10-25T09:55:43.000Z,5.6
2022-10-25T09:58:10.000Z,5.12
2022-10-25T10:00:42.000Z,5.35
2022-10-25T10:05:35.000Z,5.72
2022-10-25T10:08:03.000Z,6.35
2022-10-25T10:10:32.000Z,6.7
2022-10-25T10:13:00.000Z,6.45
2022-10-25T10:15:32.000Z,6.4
2022-10-25T10:17:57.000Z,5.43
2022-10-25T10:20:23.000Z,6.08
2022-10-25T10:22:50.000Z,6.1
2022-10-25T10:25:18.000Z,5.83
2022-10-25T10:27:46.000Z,5.33
2022-10-25T10:30:17.000Z,5.7
2022-10-25T10:35:09.000Z,6
2022-10-25T10:37:33.000Z,5.57
2022-10-25T10:39:59.000Z,5.83
2022-10-25T10:42:26.000Z,5.3
2022-10-25T10:44:51.000Z,5.05
2022-10-25T10:47:20.000Z,4.9
2022-10-25T10:49:46.000Z,5.2
2022-10-25T10:52:12.000Z,5.1
2022-10-25T10:54:39.000Z,5.23
2022-10-25T10:57:05.000Z,4.9
2022-10-25T10:59:30.000Z,4.97
2022-10-25T11:02:11.000Z,4.9
2022-10-25T11:04:23.000Z,4.7
2022-10-25T11:06:49.000Z,5.07
2022-10-25T11:09:16.000Z,4.97
2022-10-25T11:11:41.000Z,5.3
2022-10-25T11:14:08.000Z,4.7
2022-10-25T11:16:33.000Z,5.3
2022-10-25T11:19:00.000Z,5.4
2022-10-25T11:21:25.000Z,5.4
2022-10-25T11:23:53.000Z,5.67
2022-10-25T11:26:21.000Z,5.9
2022-10-25T11:28:52.000Z,5.7
2022-10-25T11:31:20.000Z,5.9
2022-10-25T11:33:46.000Z,5.6
2022-10-25T11:36:13.000Z,5.7
2022-10-25T11:41:13.000Z,5.55
2022-10-25T11:43:41.000Z,5.83
2022-10-25T11:46:08.000Z,5.42
2022-10-25T11:48:33.000Z,5.47
2022-10-25T11:50:58.000Z,5.6
2022-10-25T11:53:30.000Z,5.47
2022-10-25T11:55:58.000Z,5.7
2022-10-25T11:58:21.000Z,5.58
2022-10-25T12:00:55.000Z,6.28
2022-10-25T12:05:39.000Z,5.7
2022-10-25T12:08:06.000Z,5.9
2022-10-25T12:10:32.000Z,5.53
2022-10-25T12:13:00.000Z,5.62
2022-10-25T12:15:27.000Z,5.75
2022-10-25T12:17:53.000Z,5.97
2022-10-25T12:20:26.000Z,5.9
2022-10-25T12:22:52.000Z,5.85
2022-10-25T12:25:19.000Z,6.25
2022-10-25T12:27:44.000Z,5.83
2022-10-25T12:30:15.000Z,6.3
2022-10-25T12:32:37.000Z,5.9
2022-10-25T12:35:03.000Z,5.6
2022-10-25T12:37:33.000Z,6.17
2022-10-25T12:42:32.000Z,5.6
2022-10-25T12:44:59.000Z,6.03
2022-10-25T12:49:59.000Z,6.65
2022-10-25T12:55:00.000Z,6.62
2022-10-25T12:57:27.000Z,7.5
2022-10-25T12:59:55.000Z,7.55
2022-10-25T13:02:25.000Z,7.8
2022-10-25T13:04:54.000Z,7.85
2022-10-25T13:07:25.000Z,7.87
2022-10-25T13:09:53.000Z,7.23
2022-10-25T13:12:23.000Z,7.75
2022-10-25T13:14:49.000Z,7.8
2022-10-25T13:17:15.000Z,7.83
2022-10-25T13:19:42.000Z,8.4
2022-10-25T13:22:16.000Z,8.38
2022-10-25T13:24:43.000Z,7.87
2022-10-25T13:29:44.000Z,7.5
2022-10-25T13:32:09.000Z,7.28
2022-10-25T13:34:37.000Z,6.83
2022-10-25T13:37:05.000Z,7.12
2022-10-25T13:39:31.000Z,7.1
2022-10-25T13:44:26.000Z,7
2022-10-25T13:46:55.000Z,6.47
2022-10-25T13:49:23.000Z,6.2
2022-10-25T13:54:20.000Z,5.62
2022-10-25T13:56:47.000Z,5.7
2022-10-25T13:59:14.000Z,5.65
2022-10-25T14:04:14.000Z,5.65
2022-10-25T14:06:39.000Z,5.4
2022-10-25T14:09:08.000Z,5.3
2022-10-25T14:11:35.000Z,4.95
2022-10-25T14:14:01.000Z,4.83
2022-10-25T14:16:28.000Z,4.43
2022-10-25T14:18:54.000Z,4.55
2022-10-25T14:21:18.000Z,3.9
2022-10-25T14:23:44.000Z,3.83
2022-10-25T14:26:14.000Z,3.93
2022-10-25T14:28:41.000Z,3.9
2022-10-25T14:31:10.000Z,3.67
2022-10-25T14:33:37.000Z,3.47
2022-10-25T14:36:02.000Z,3.3
2022-10-25T14:38:28.000Z,3.1
2022-10-25T14:40:57.000Z,3
2022-10-25T14:43:22.000Z,3.1
2022-10-25T14:45:48.000Z,3.1
2022-10-25T14:48:15.000Z,3
2022-10-25T14:50:41.000Z,3.3
2022-10-25T14:53:06.000Z,3.3
2022-10-25T14:55:32.000Z,3.3
2022-10-25T14:57:58.000Z,3.3
2022-10-25T15:00:32.000Z,3.47
2022-10-25T15:02:51.000Z,3.85
2022-10-25T15:05:17.000Z,3.87
2022-10-25T15:07:43.000Z,4.65
2022-10-25T15:10:12.000Z,4.3
2022-10-25T15:12:36.000Z,4.3
2022-10-25T15:15:09.000Z,4.67
2022-10-25T15:17:40.000Z,4.3
2022-10-25T15:22:25.000Z,4.17
2022-10-25T15:24:51.000Z,4.45
2022-10-25T15:27:16.000Z,4.63
2022-10-25T15:29:42.000Z,4.2
2022-10-25T15:32:08.000Z,4.4
2022-10-25T15:34:34.000Z,4.2
2022-10-25T15:37:01.000Z,4.22
2022-10-25T15:39:27.000Z,4.13
2022-10-25T15:41:55.000Z,4.22
2022-10-25T15:44:20.000Z,4.67
2022-10-25T15:46:45.000Z,4.22
2022-10-25T15:49:11.000Z,4.2
2022-10-25T15:51:37.000Z,4.58
2022-10-25T15:54:03.000Z,4.77
2022-10-25T15:58:55.000Z,4.5
2022-10-25T16:01:27.000Z,5.05
2022-10-25T16:03:47.000Z,5.17
2022-10-25T16:06:14.000Z,4.4
2022-10-25T16:08:39.000Z,4.1
2022-10-25T16:11:05.000Z,4
2022-10-25T16:13:32.000Z,3.8
2022-10-25T16:15:56.000Z,3.5
2022-10-25T16:20:48.000Z,3.47
2022-10-25T16:23:14.000Z,3
2022-10-25T16:25:59.000Z,3
2022-10-25T16:28:08.000Z,2.47
2022-10-25T16:30:32.000Z,2.55
2022-10-25T16:32:58.000Z,2.63
2022-10-25T16:35:26.000Z,2.7
2022-10-25T16:37:52.000Z,2.45
2022-10-25T16:40:23.000Z,2.43
2022-10-25T16:42:43.000Z,2.33
2022-10-25T16:45:10.000Z,2.1
2022-10-25T16:47:35.000Z,2.35
2022-10-25T16:50:02.000Z,1.93
2022-10-25T16:52:28.000Z,1.93
2022-10-25T16:54:52.000Z,1.82
2022-10-25T16:57:18.000Z,1.8
2022-10-25T16:59:45.000Z,1.5
2022-10-25T17:02:12.000Z,1.6
2022-10-25T17:04:37.000Z,1.62
2022-10-25T17:07:03.000Z,1.5
2022-10-25T17:09:28.000Z,1.2
2022-10-25T17:11:55.000Z,1.47
2022-10-25T17:14:21.000Z,1.3
2022-10-25T17:16:46.000Z,1.32
2022-10-25T17:19:13.000Z,1.1
2022-10-25T17:21:39.000Z,1
2022-10-25T17:24:08.000Z,1.3
2022-10-25T17:26:31.000Z,1.2
2022-10-25T17:28:55.000Z,1.2
2022-10-25T17:31:29.000Z,1.23
2022-10-25T17:33:49.000Z,1.23
2022-10-25T17:36:16.000Z,1.2
2022-10-25T17:38:40.000Z,1.6
2022-10-25T17:41:09.000Z,1.22
2022-10-25T17:43:33.000Z,1.3
2022-10-25T17:45:57.000Z,1.1
2022-10-25T17:48:23.000Z,1.13
2022-10-25T17:50:48.000Z,1.1
2022-10-25T17:53:14.000Z,1.12
2022-10-25T17:55:40.000Z,1.15
2022-10-25T17:58:07.000Z,0.97
2022-10-25T18:00:39.000Z,1
2022-10-25T18:02:59.000Z,0.85
2022-10-25T18:05:24.000Z,1
2022-10-25T18:07:52.000Z,0.7
2022-10-25T18:10:16.000Z,0.97
2022-10-25T18:12:43.000Z,1
2022-10-25T18:15:12.000Z,0.9
2022-10-25T18:17:35.000Z,1.07
2022-10-25T18:20:00.000Z,0.9
2022-10-25T18:22:27.000Z,1
2022-10-25T18:24:53.000Z,0.95
2022-10-25T18:27:19.000Z,0.93
2022-10-25T18:29:46.000Z,0.9
2022-10-25T18:32:12.000Z,0.93
2022-10-25T18:34:39.000Z,0.85
2022-10-25T18:37:05.000Z,0.8
2022-10-25T18:39:31.000Z,0.82
2022-10-25T18:41:56.000Z,0.7
2022-10-25T18:44:22.000Z,0.9
2022-10-25T18:46:49.000Z,0.73
2022-10-25T18:49:15.000Z,0.8
2022-10-25T18:51:41.000Z,0.78
2022-10-25T18:54:07.000Z,0.82
2022-10-25T18:56:32.000Z,1
2022-10-25T18:58:58.000Z,1
2022-10-25T19:01:25.000Z,1.13
2022-10-25T19:03:50.000Z,0.93
2022-10-25T19:06:16.000Z,1.07
2022-10-25T19:08:43.000Z,1.22
2022-10-25T19:11:08.000Z,1.2
2022-10-25T19:13:34.000Z,1.2
2022-10-25T19:15:59.000Z,1.2
2022-10-25T19:18:25.000Z,1.2
2022-10-25T19:20:51.000Z,1.1
2022-10-25T19:23:19.000Z,1
2022-10-25T19:25:44.000Z,1.1
2022-10-25T19:28:10.000Z,1.3
2022-10-25T19:30:36.000Z,1.15
2022-10-25T19:33:02.000Z,1.2
2022-10-25T19:35:27.000Z,0.95
2022-10-25T19:37:53.000Z,0.9
2022-10-25T19:42:46.000Z,1
2022-10-25T19:45:15.000Z,0.97
2022-10-25T19:47:38.000Z,1
2022-10-25T19:50:11.000Z,1.05
2022-10-25T19:52:29.000Z,1.1
2022-10-25T19:54:55.000Z,1.05
2022-10-25T19:57:21.000Z,1
2022-10-25T19:59:47.000Z,1.03
2022-10-25T20:02:12.000Z,0.88
2022-10-25T20:04:40.000Z,1.05
2022-10-25T20:07:05.000Z,0.85
2022-10-25T20:09:37.000Z,0.7
2022-10-25T20:12:01.000Z,0.9
2022-10-25T20:14:22.000Z,0.7
2022-10-25T20:16:47.000Z,1
2022-10-25T20:19:14.000Z,0.8
2022-10-25T20:21:40.000Z,1
2022-10-25T20:24:06.000Z,1.1
2022-10-25T20:26:33.000Z,1.1
2022-10-25T20:28:58.000Z,1.1
2022-10-25T20:31:25.000Z,1.4
2022-10-25T20:33:51.000Z,1.2
2022-10-25T20:36:16.000Z,1
2022-10-25T20:38:41.000Z,1.3
2022-10-25T20:41:09.000Z,1.2
2022-10-25T20:43:34.000Z,1.2
2022-10-25T20:46:00.000Z,1.42
2022-10-25T20:48:25.000Z,1.07
2022-10-25T20:50:51.000Z,1.2
2022-10-25T20:53:17.000Z,1.17
2022-10-25T20:55:44.000Z,1.22
2022-10-25T20:58:10.000Z,1.22
2022-10-25T21:00:39.000Z,1.03
2022-10-25T21:03:02.000Z,1
2022-10-25T21:05:28.000Z,1.05
2022-10-25T21:08:02.000Z,1
2022-10-25T21:10:36.000Z,1
2022-10-25T21:12:45.000Z,0.9
2022-10-25T21:15:12.000Z,0.95
2022-10-25T21:17:37.000Z,1.1
2022-10-25T21:20:04.000Z,1
2022-10-25T21:22:29.000Z,1.1
2022-10-25T21:24:55.000Z,1.2
2022-10-25T21:27:22.000Z,1.3
2022-10-25T21:29:53.000Z,1.1
2022-10-25T21:32:43.000Z,1.13
2022-10-25T21:34:39.000Z,1.3
2022-10-25T21:37:07.000Z,1.3
2022-10-25T21:39:31.000Z,1.6
2022-10-25T21:41:57.000Z,1.27
2022-10-25T21:44:23.000Z,1.5
2022-10-25T21:46:49.000Z,1.5
2022-10-25T21:49:15.000Z,1.8
2022-10-25T21:51:41.000Z,1.7
2022-10-25T21:54:07.000Z,1.5
2022-10-25T21:58:59.000Z,1.5
2022-10-25T22:01:26.000Z,1.8
2022-10-25T22:03:51.000Z,1.77
2022-10-25T22:06:17.000Z,1.8
2022-10-25T22:08:43.000Z,1.7
2022-10-25T22:11:09.000Z,1.9
2022-10-25T22:13:36.000Z,1.7
2022-10-25T22:16:02.000Z,1.8
2022-10-25T22:18:26.000Z,1.67
2022-10-25T22:20:52.000Z,1.9
2022-10-25T22:23:18.000Z,1.9
2022-10-25T22:25:44.000Z,1.9
2022-10-25T22:28:10.000Z,1.87
2022-10-25T22:30:37.000Z,1.82
2022-10-25T22:33:02.000Z,1.98
2022-10-25T22:35:31.000Z,1.98
2022-10-25T22:37:57.000Z,2.2
2022-10-25T22:40:22.000Z,2.3
2022-10-25T22:42:48.000Z,2.3
2022-10-25T22:45:15.000Z,2.3
2022-10-25T22:47:40.000Z,2
2022-10-25T22:50:09.000Z,2.08
2022-10-25T22:52:38.000Z,2.4
2022-10-25T22:54:58.000Z,2.25
2022-10-25T22:57:24.000Z,2.2
2022-10-25T22:59:50.000Z,2.3
2022-10-25T23:02:16.000Z,2.37
2022-10-25T23:04:41.000Z,2.4
2022-10-25T23:07:08.000Z,2.4
2022-10-25T23:09:34.000Z,2.33
2022-10-25T23:12:00.000Z,2.12
2022-10-25T23:14:26.000Z,2.17
2022-10-25T23:16:51.000Z,2.1
2022-10-25T23:19:19.000Z,2.27
2022-10-25T23:21:57.000Z,2.2
2022-10-25T23:24:11.000Z,2.73
2022-10-25T23:26:36.000Z,2.65
2022-10-25T23:29:04.000Z,2.6
2022-10-25T23:31:28.000Z,2.5
2022-10-25T23:33:54.000Z,2.5
2022-10-25T23:36:19.000Z,2.3
2022-10-25T23:38:45.000Z,2.15
2022-10-25T23:41:11.000Z,2.37
2022-10-25T23:43:36.000Z,2.87
2022-10-25T23:46:02.000Z,3.1
2022-10-25T23:48:29.000Z,2.9
2022-10-25T23:51:11.000Z,2.8
2022-10-25T23:53:20.000Z,2.7
2022-10-25T23:55:46.000Z,3.22
2022-10-25T23:58:12.000Z,3
